Time;durP1;ratioP1;P1;durP2;ratioP2;P2;SDS_P1;SDS_P2;PMS_P1;PMS_P2;Temp;Humidity;BMP_temperature;BMP_pressure;BME280_temperature;BME280_humidity;BME280_pressure;Samples;Min_cycle;Max_cycle;Signal;HPM_P1;HPM_P2
2023/12/13 00:02:09;;;;;;;;;;;8.50;91.30;;;;;;5061098;28;19932;-63
2023/12/13 00:04:44;;;;;;;;;;;8.50;91.30;;;;;;5058770;28;19933;-64
2023/12/13 00:07:16;;;;;;;;;;;8.50;91.30;;;;;;5060846;28;19948;-63
2023/12/13 00:09:50;;;;;;;;;;;8.50;91.30;;;;;;5061405;28;19936;-64
2023/12/13 00:12:30;;;;;;;;;;;8.50;91.20;;;;;;5059299;28;19932;-64
2023/12/13 00:15:04;;;;;;;;;;;8.50;91.10;;;;;;5060388;28;19950;-64
2023/12/13 00:17:36;;;;;;;;;;;8.40;91.20;;;;;;5059814;28;20283;-65
2023/12/13 00:23:46;;;;;;;;;;;8.50;91.20;;;;;;5056922;28;19930;-63
2023/12/13 00:26:20;;;;;;;;;;;8.40;91.30;;;;;;5059393;28;19925;-64
2023/12/13 00:28:52;;;;;;;;;;;8.50;91.20;;;;;;5059077;28;19925;-63
2023/12/13 00:31:25;;;;;;;;;;;8.50;91.20;;;;;;5059891;28;19925;-63
2023/12/13 00:33:58;;;;;;;;;;;8.50;91.20;;;;;;5059869;28;20341;-64
2023/12/13 00:36:31;;;;;;;;;;;8.50;91.20;;;;;;5060883;28;19998;-64
2023/12/13 00:39:06;;;;;;;;;;;8.50;91.20;;;;;;5060257;28;20756;-62
2023/12/13 00:41:39;;;;;;;;;;;8.50;91.30;;;;;;5059015;28;20366;-63
2023/12/13 00:44:12;;;;;;;;;;;8.50;91.30;;;;;;5060189;28;20343;-64
2023/12/13 00:46:45;;;;;;;;;;;8.50;91.30;;;;;;5057900;28;19925;-63
2023/12/13 00:49:20;;;;;;;;;;;8.50;91.30;;;;;;5059930;28;19952;-70
2023/12/13 00:51:53;;;;;;;;;;;8.50;91.30;;;;;;5059335;28;19928;-71
2023/12/13 00:54:28;;;;;;;;;;;8.50;91.30;;;;;;5060602;28;19982;-71
2023/12/13 00:57:00;;;;;;;;;;;8.50;91.30;;;;;;5059938;28;20287;-70
2023/12/13 00:59:33;;;;;;;;;;;8.50;91.30;;;;;;5059822;28;19925;-70
2023/12/13 01:02:07;;;;;;;;;;;8.50;91.30;;;;;;5061033;28;19928;-70
2023/12/13 01:04:41;;;;;;;;;;;8.50;91.30;;;;;;5059241;28;20338;-71
2023/12/13 01:07:14;;;;;;;;;;;8.60;91.20;;;;;;5060785;28;19928;-71
2023/12/13 01:09:49;;;;;;;;;;;8.50;91.20;;;;;;5058936;28;19928;-70
2023/12/13 01:12:22;;;;;;;;;;;8.50;91.20;;;;;;5060135;28;20376;-71
2023/12/13 01:14:55;;;;;;;;;;;8.50;91.30;;;;;;5057977;28;20346;-71
2023/12/13 01:17:28;;;;;;;;;;;8.60;91.40;;;;;;5058774;28;19947;-70
2023/12/13 01:20:01;;;;;;;;;;;8.50;91.30;;;;;;5063218;28;19970;-71
2023/12/13 01:22:34;;;;;;;;;;;8.50;91.30;;;;;;5059349;28;19928;-72
2023/12/13 01:25:09;;;;;;;;;;;8.50;91.40;;;;;;5059416;28;19925;-71
2023/12/13 01:27:43;;;;;;;;;;;8.50;91.40;;;;;;5059239;28;19970;-70
2023/12/13 01:30:15;;;;;;;;;;;8.50;91.40;;;;;;5059864;28;20001;-71
2023/12/13 01:32:42;;;;;;;;;;;8.50;91.50;;;;;;5041927;28;19939;-71
2023/12/13 01:35:15;;;;;;;;;;;8.50;91.40;;;;;;5059340;28;20325;-72
2023/12/13 01:37:48;;;;;;;;;;;8.50;91.40;;;;;;5047325;28;20450;-69
2023/12/13 01:40:23;;;;;;;;;;;8.50;91.40;;;;;;5059665;28;19932;-71
2023/12/13 01:42:56;;;;;;;;;;;8.50;91.40;;;;;;5059399;28;20466;-70
2023/12/13 01:45:29;;;;;;;;;;;8.50;91.50;;;;;;5059444;28;19929;-71
2023/12/13 01:48:02;;;;;;;;;;;8.50;91.40;;;;;;5059143;28;19964;-71
2023/12/13 01:50:35;;;;;;;;;;;8.50;91.40;;;;;;5058442;28;20048;-70
2023/12/13 01:53:08;;;;;;;;;;;8.60;91.40;;;;;;5059214;28;19967;-71
2023/12/13 01:55:43;;;;;;;;;;;8.50;91.40;;;;;;5058768;28;19928;-71
2023/12/13 01:58:16;;;;;;;;;;;8.50;91.30;;;;;;5059941;28;19960;-71
2023/12/13 02:00:51;;;;;;;;;;;8.60;91.40;;;;;;5062967;28;19924;-76
2023/12/13 02:03:25;;;;;;;;;;;8.60;91.40;;;;;;5061620;28;20326;-78
2023/12/13 02:06:03;;;;;;;;;;;8.60;91.40;;;;;;5059753;28;20348;-78
2023/12/13 02:08:36;;;;;;;;;;;8.50;91.30;;;;;;5048985;28;19928;-77
2023/12/13 02:11:11;;;;;;;;;;;8.60;91.30;;;;;;5060020;28;19933;-77
2023/12/13 02:13:44;;;;;;;;;;;8.60;91.40;;;;;;5060067;28;20014;-78
2023/12/13 02:16:17;;;;;;;;;;;8.60;91.40;;;;;;5060804;28;19936;-77
2023/12/13 02:18:50;;;;;;;;;;;8.60;91.30;;;;;;5059294;28;19925;-77
2023/12/13 02:21:24;;;;;;;;;;;8.60;91.40;;;;;;5058720;28;19929;-76
2023/12/13 02:24:01;;;;;;;;;;;8.60;91.40;;;;;;5062796;28;19932;-77
2023/12/13 02:26:39;;;;;;;;;;;8.60;91.50;;;;;;5062258;28;19936;-77
2023/12/13 02:29:12;;;;;;;;;;;8.60;91.40;;;;;;5063270;28;19929;-77
2023/12/13 02:31:46;;;;;;;;;;;8.60;91.60;;;;;;5062055;28;19928;-78
2023/12/13 02:34:20;;;;;;;;;;;8.60;91.60;;;;;;5060469;28;19968;-77
2023/12/13 02:36:52;;;;;;;;;;;8.60;91.50;;;;;;5059922;28;19925;-78
2023/12/13 02:39:27;;;;;;;;;;;8.60;91.50;;;;;;5060534;28;20031;-75
2023/12/13 02:42:00;;;;;;;;;;;8.70;91.70;;;;;;5060465;28;19928;-75
2023/12/13 02:44:33;;;;;;;;;;;8.60;91.50;;;;;;5060203;28;19932;-78
2023/12/13 02:47:06;;;;;;;;;;;8.60;91.60;;;;;;5041434;28;20011;-77
2023/12/13 02:49:40;;;;;;;;;;;8.70;91.80;;;;;;5058811;28;20039;-77
2023/12/13 02:52:06;;;;;;;;;;;8.70;91.80;;;;;;5058821;28;19940;-77
2023/12/13 02:54:44;;;;;;;;;;;8.70;91.70;;;;;;5057335;28;19963;-76
2023/12/13 02:57:16;;;;;;;;;;;8.70;91.90;;;;;;5060228;28;19929;-76
2023/12/13 02:59:49;;;;;;;;;;;8.70;91.70;;;;;;5058827;28;20010;-77
2023/12/13 03:02:22;;;;;;;;;;;8.70;91.80;;;;;;5058237;28;19928;-76
2023/12/13 03:04:55;;;;;;;;;;;8.70;91.90;;;;;;5058627;28;20325;-77
2023/12/13 03:07:28;;;;;;;;;;;8.70;91.80;;;;;;5059567;28;19948;-77
2023/12/13 03:10:03;;;;;;;;;;;8.70;91.80;;;;;;5060724;28;19924;-71
2023/12/13 03:12:36;;;;;;;;;;;8.70;91.80;;;;;;5056823;28;19928;-71
2023/12/13 03:15:12;;;;;;;;;;;8.70;91.90;;;;;;5058108;28;20383;-70
2023/12/13 03:17:45;;;;;;;;;;;8.70;92.00;;;;;;5058111;28;19935;-71
2023/12/13 03:20:18;;;;;;;;;;;8.70;92.10;;;;;;5058899;28;19935;-72
2023/12/13 03:22:51;;;;;;;;;;;8.80;92.00;;;;;;5057581;28;19960;-71
2023/12/13 03:25:26;;;;;;;;;;;8.80;92.10;;;;;;5057814;28;19929;-71
2023/12/13 03:27:58;;;;;;;;;;;8.70;92.00;;;;;;5054563;28;19925;-70
2023/12/13 03:30:31;;;;;;;;;;;8.80;92.10;;;;;;5057994;28;20379;-71
2023/12/13 03:32:58;;;;;;;;;;;8.80;91.90;;;;;;5057534;28;20343;-70
2023/12/13 03:35:31;;;;;;;;;;;8.70;92.10;;;;;;5057502;28;19925;-70
2023/12/13 03:38:05;;;;;;;;;;;8.80;92.10;;;;;;5058536;28;20011;-70
2023/12/13 03:40:39;;;;;;;;;;;8.70;92.00;;;;;;5056114;28;19925;-71
2023/12/13 03:43:11;;;;;;;;;;;8.80;92.20;;;;;;5059316;28;19924;-71
2023/12/13 03:45:44;;;;;;;;;;;8.70;92.10;;;;;;5057107;28;19924;-70
2023/12/13 03:48:17;;;;;;;;;;;8.70;92.10;;;;;;5057678;28;19932;-70
2023/12/13 03:50:50;;;;;;;;;;;8.80;92.10;;;;;;5056732;28;19928;-72
2023/12/13 03:53:23;;;;;;;;;;;8.80;92.10;;;;;;5055140;28;19933;-70
2023/12/13 03:55:58;;;;;;;;;;;8.70;92.10;;;;;;5057253;28;20019;-70
2023/12/13 03:58:30;;;;;;;;;;;8.70;91.90;;;;;;5057792;28;19928;-71
2023/12/13 04:01:04;;;;;;;;;;;8.70;92.00;;;;;;5059116;28;19976;-72
2023/12/13 04:03:36;;;;;;;;;;;8.70;91.90;;;;;;5057012;28;20023;-71
2023/12/13 04:06:09;;;;;;;;;;;8.70;91.90;;;;;;5056925;28;19958;-72
2023/12/13 04:08:42;;;;;;;;;;;8.70;91.90;;;;;;5043081;28;20347;-72
2023/12/13 04:11:17;;;;;;;;;;;8.60;92.00;;;;;;5054359;28;19950;-72
2023/12/13 04:13:49;;;;;;;;;;;8.70;92.00;;;;;;5052745;28;19925;-71
2023/12/13 04:16:22;;;;;;;;;;;8.60;92.00;;;;;;5055469;28;19939;-71
2023/12/13 04:18:55;;;;;;;;;;;8.60;92.10;;;;;;5055501;28;19931;-63
2023/12/13 04:21:27;;;;;;;;;;;8.60;92.00;;;;;;5055934;28;19936;-60
2023/12/13 04:24:02;;;;;;;;;;;8.60;92.00;;;;;;5055567;28;19970;-60
2023/12/13 04:26:36;;;;;;;;;;;8.60;92.00;;;;;;5056900;28;19940;-60
2023/12/13 04:29:09;;;;;;;;;;;8.70;92.00;;;;;;5056026;28;20434;-60
2023/12/13 04:31:43;;;;;;;;;;;8.60;92.00;;;;;;5055154;28;20021;-59
2023/12/13 04:34:15;;;;;;;;;;;8.60;92.00;;;;;;5056644;28;19932;-61
2023/12/13 04:36:48;;;;;;;;;;;8.60;91.90;;;;;;5057527;28;19925;-60
2023/12/13 04:39:21;;;;;;;;;;;8.60;91.90;;;;;;5039646;28;19928;-61
2023/12/13 04:41:59;;;;;;;;;;;8.60;91.90;;;;;;5056194;28;19925;-60
2023/12/13 04:44:31;;;;;;;;;;;8.60;92.00;;;;;;5057211;28;19960;-59
2023/12/13 04:47:04;;;;;;;;;;;8.60;91.90;;;;;;5056397;28;19929;-60
2023/12/13 04:49:38;;;;;;;;;;;8.60;91.90;;;;;;5059374;28;19928;-60
2023/12/13 04:52:10;;;;;;;;;;;8.60;91.90;;;;;;5059923;28;19929;-60
2023/12/13 04:54:44;;;;;;;;;;;8.60;91.80;;;;;;5059658;28;20288;-59
2023/12/13 04:57:18;;;;;;;;;;;8.60;91.80;;;;;;5064350;28;19932;-60
2023/12/13 04:59:51;;;;;;;;;;;8.60;91.80;;;;;;5064143;28;19931;-60
2023/12/13 05:02:24;;;;;;;;;;;8.60;91.80;;;;;;5064563;28;19925;-59
2023/12/13 05:04:58;;;;;;;;;;;8.60;91.80;;;;;;5060528;28;19960;-60
2023/12/13 05:07:33;;;;;;;;;;;8.60;91.80;;;;;;5061145;28;19928;-59
2023/12/13 05:10:07;;;;;;;;;;;8.60;91.70;;;;;;5059400;28;19971;-60
2023/12/13 05:12:42;;;;;;;;;;;8.60;91.70;;;;;;5059129;28;19929;-60
2023/12/13 05:15:15;;;;;;;;;;;8.60;91.70;;;;;;5060002;28;19931;-59
2023/12/13 05:17:47;;;;;;;;;;;8.60;91.60;;;;;;5059992;28;20013;-60
2023/12/13 05:20:21;;;;;;;;;;;8.60;91.60;;;;;;5064484;28;19928;-61
2023/12/13 05:22:53;;;;;;;;;;;8.60;91.70;;;;;;5062609;28;19932;-61
2023/12/13 05:25:27;;;;;;;;;;;8.60;91.60;;;;;;5062482;28;19931;-61
2023/12/13 05:28:01;;;;;;;;;;;8.60;91.60;;;;;;5061888;28;19925;-60
2023/12/13 05:30:35;;;;;;;;;;;8.60;91.70;;;;;;5059621;28;19936;-59
2023/12/13 05:33:08;;;;;;;;;;;8.60;91.60;;;;;;5062742;28;19928;-61
2023/12/13 05:35:41;;;;;;;;;;;8.60;91.60;;;;;;5061214;28;20495;-63
2023/12/13 05:38:14;;;;;;;;;;;8.60;91.60;;;;;;5059761;28;19935;-64
2023/12/13 05:40:48;;;;;;;;;;;8.60;91.70;;;;;;5041719;28;20341;-66
2023/12/13 05:43:22;;;;;;;;;;;8.60;91.60;;;;;;5059224;28;20379;-65
2023/12/13 05:45:56;;;;;;;;;;;8.60;91.70;;;;;;5057197;28;20026;-66
2023/12/13 05:48:22;;;;;;;;;;;8.60;91.60;;;;;;5062336;28;19947;-63
2023/12/13 05:50:56;;;;;;;;;;;8.60;91.50;;;;;;5060985;28;22209;-64
2023/12/13 05:53:28;;;;;;;;;;;8.60;91.50;;;;;;5061368;28;19928;-63
2023/12/13 05:56:01;;;;;;;;;;;8.60;91.50;;;;;;5062480;28;20014;-63
2023/12/13 05:58:36;;;;;;;;;;;8.60;91.50;;;;;;5059758;28;20425;-62
2023/12/13 06:01:09;;;;;;;;;;;8.60;91.60;;;;;;5057262;28;19925;-63
2023/12/13 06:03:36;;;;;;;;;;;8.60;91.60;;;;;;5062270;28;19925;-64
2023/12/13 06:06:10;;;;;;;;;;;8.60;91.50;;;;;;5062675;28;19924;-63
2023/12/13 06:08:43;;;;;;;;;;;8.60;91.40;;;;;;5061822;28;19978;-61
2023/12/13 06:11:22;;;;;;;;;;;8.60;91.50;;;;;;5060941;28;19924;-63
2023/12/13 06:13:57;;;;;;;;;;;8.60;91.50;;;;;;5061078;28;21793;-63
2023/12/13 06:16:30;;;;;;;;;;;8.60;91.40;;;;;;5061462;28;19939;-63
2023/12/13 06:19:03;;;;;;;;;;;8.60;91.40;;;;;;5060717;28;20443;-63
2023/12/13 06:21:36;;;;;;;;;;;8.60;91.40;;;;;;5061651;28;20379;-63
2023/12/13 06:24:09;;;;;;;;;;;8.60;91.40;;;;;;5061361;28;19964;-63
2023/12/13 06:26:43;;;;;;;;;;;8.70;91.50;;;;;;5060791;28;19925;-63
2023/12/13 06:29:17;;;;;;;;;;;8.60;91.40;;;;;;5060657;28;20287;-63
2023/12/13 06:31:44;;;;;;;;;;;8.60;91.40;;;;;;5061404;28;19933;-64
2023/12/13 06:34:17;;;;;;;;;;;8.60;91.40;;;;;;5061023;28;20001;-63
2023/12/13 06:36:52;;;;;;;;;;;8.60;91.40;;;;;;5059826;28;19979;-63
2023/12/13 06:39:26;;;;;;;;;;;8.60;91.50;;;;;;5056333;28;19951;-65
2023/12/13 06:41:59;;;;;;;;;;;8.60;91.40;;;;;;5064854;28;20338;-64
2023/12/13 06:44:33;;;;;;;;;;;8.60;91.50;;;;;;5060066;28;19931;-63
2023/12/13 06:47:00;;;;;;;;;;;8.60;91.50;;;;;;5059612;28;19928;-62
2023/12/13 06:49:34;;;;;;;;;;;8.50;91.40;;;;;;5060493;28;20003;-64
2023/12/13 06:52:07;;;;;;;;;;;8.50;91.50;;;;;;5060122;28;19967;-63
2023/12/13 06:54:43;;;;;;;;;;;8.50;91.40;;;;;;5060762;28;20371;-62
2023/12/13 06:57:16;;;;;;;;;;;8.60;91.60;;;;;;5060953;28;19936;-62
2023/12/13 06:59:51;;;;;;;;;;;8.60;91.50;;;;;;5059387;28;19924;-63
2023/12/13 07:02:24;;;;;;;;;;;8.60;91.50;;;;;;5060041;28;19936;-63
2023/12/13 07:04:57;;;;;;;;;;;8.50;91.60;;;;;;5050791;28;20417;-63
2023/12/13 07:07:30;;;;;;;;;;;8.50;91.50;;;;;;5060959;28;19932;-63
2023/12/13 07:10:03;;;;;;;;;;;8.60;91.50;;;;;;5060860;28;20023;-63
2023/12/13 07:12:37;;;;;;;;;;;8.60;91.50;;;;;;5057249;28;19932;-62
2023/12/13 07:15:18;;;;;;;;;;;8.60;91.40;;;;;;5059564;28;20002;-63
2023/12/13 07:17:55;;;;;;;;;;;8.60;91.50;;;;;;5061081;28;19955;-62
2023/12/13 07:20:30;;;;;;;;;;;8.60;91.50;;;;;;5049958;28;20015;-62
2023/12/13 07:23:05;;;;;;;;;;;8.60;91.40;;;;;;5060534;28;19924;-64
2023/12/13 07:25:38;;;;;;;;;;;8.60;91.50;;;;;;5058217;28;19925;-63
2023/12/13 07:28:13;;;;;;;;;;;8.60;91.50;;;;;;5057965;28;20021;-63
2023/12/13 07:30:48;;;;;;;;;;;8.60;91.50;;;;;;5060183;28;19925;-62
2023/12/13 07:33:22;;;;;;;;;;;8.60;91.40;;;;;;5060464;28;19978;-62
2023/12/13 07:35:55;;;;;;;;;;;8.60;91.40;;;;;;5059169;28;19929;-63
2023/12/13 07:38:28;;;;;;;;;;;8.60;91.30;;;;;;5059804;28;20359;-64
2023/12/13 07:41:01;;;;;;;;;;;8.60;91.40;;;;;;5049581;28;20367;-63
2023/12/13 07:43:34;;;;;;;;;;;8.60;91.40;;;;;;5060924;28;19924;-63
2023/12/13 07:46:08;;;;;;;;;;;8.60;91.40;;;;;;5061301;28;19924;-63
2023/12/13 07:48:42;;;;;;;;;;;8.60;91.40;;;;;;5059200;28;20341;-63
2023/12/13 07:51:15;;;;;;;;;;;8.60;91.40;;;;;;5059630;28;19928;-63
2023/12/13 07:53:48;;;;;;;;;;;8.70;91.40;;;;;;5058044;28;19928;-62
2023/12/13 07:56:21;;;;;;;;;;;8.70;91.40;;;;;;5060059;28;19935;-63
2023/12/13 07:58:54;;;;;;;;;;;8.70;91.40;;;;;;5059871;28;19935;-63
2023/12/13 08:01:28;;;;;;;;;;;8.70;91.40;;;;;;5060132;28;19928;-71
2023/12/13 08:04:01;;;;;;;;;;;8.70;91.40;;;;;;5059650;28;19932;-71
2023/12/13 08:06:34;;;;;;;;;;;8.70;91.30;;;;;;5061671;28;20012;-70
2023/12/13 08:09:01;;;;;;;;;;;8.80;91.30;;;;;;5059063;28;20018;-70
2023/12/13 08:11:35;;;;;;;;;;;8.70;91.30;;;;;;5059776;28;19924;-71
2023/12/13 08:14:08;;;;;;;;;;;8.80;91.40;;;;;;5060729;28;20115;-71
2023/12/13 08:16:45;;;;;;;;;;;8.80;91.40;;;;;;5059174;28;19925;-71
2023/12/13 08:19:21;;;;;;;;;;;8.80;91.30;;;;;;5060924;28;19961;-70
2023/12/13 08:21:55;;;;;;;;;;;8.80;91.30;;;;;;5056496;28;20322;-70
2023/12/13 08:24:28;;;;;;;;;;;8.90;91.20;;;;;;5062291;28;20014;-71
2023/12/13 08:27:01;;;;;;;;;;;8.80;91.10;;;;;;5045899;28;20295;-70
2023/12/13 08:29:34;;;;;;;;;;;8.80;91.10;;;;;;5050082;28;19925;-72
2023/12/13 08:32:08;;;;;;;;;;;8.90;91.20;;;;;;5064554;28;19933;-71
2023/12/13 08:34:41;;;;;;;;;;;8.90;91.10;;;;;;5062671;28;20007;-71
2023/12/13 08:37:14;;;;;;;;;;;8.90;91.00;;;;;;5063044;28;19975;-70
2023/12/13 08:39:49;;;;;;;;;;;8.90;91.20;;;;;;5063846;28;19928;-72
2023/12/13 08:42:22;;;;;;;;;;;9.00;91.20;;;;;;5064648;28;19924;-70
2023/12/13 08:44:55;;;;;;;;;;;8.90;91.10;;;;;;5062042;28;20021;-71
2023/12/13 08:47:29;;;;;;;;;;;9.00;91.30;;;;;;5063833;28;19933;-71
2023/12/13 08:50:02;;;;;;;;;;;9.10;91.30;;;;;;5062801;28;19924;-71
2023/12/13 08:52:35;;;;;;;;;;;9.20;91.20;;;;;;5062928;28;20021;-72
2023/12/13 08:55:09;;;;;;;;;;;9.20;91.30;;;;;;5063154;28;20007;-70
2023/12/13 08:57:42;;;;;;;;;;;9.20;91.20;;;;;;5064088;28;20480;-72
2023/12/13 09:00:15;;;;;;;;;;;9.30;91.10;;;;;;5059620;28;19925;-71
2023/12/13 09:02:50;;;;;;;;;;;9.30;91.10;;;;;;5061372;28;19928;-71
2023/12/13 09:05:23;;;;;;;;;;;9.30;91.00;;;;;;5052727;28;19944;-70
2023/12/13 09:07:56;;;;;;;;;;;9.30;91.10;;;;;;5061961;28;19938;-70
2023/12/13 09:10:29;;;;;;;;;;;9.30;91.20;;;;;;5061907;28;19932;-58
2023/12/13 09:13:03;;;;;;;;;;;9.30;91.30;;;;;;5062298;28;19928;-60
2023/12/13 09:15:36;;;;;;;;;;;9.30;91.20;;;;;;5063194;28;20007;-60
2023/12/13 09:18:10;;;;;;;;;;;9.40;91.20;;;;;;5061696;28;20275;-59
2023/12/13 09:20:47;;;;;;;;;;;9.30;91.10;;;;;;5063066;28;19931;-60
2023/12/13 09:23:23;;;;;;;;;;;9.30;91.20;;;;;;5066587;28;19924;-60
2023/12/13 09:25:59;;;;;;;;;;;9.40;91.20;;;;;;5062802;28;19925;-59
2023/12/13 09:28:35;;;;;;;;;;;9.40;91.20;;;;;;5060341;28;19948;-59
2023/12/13 09:31:10;;;;;;;;;;;9.40;91.20;;;;;;5061116;28;19928;-60
2023/12/13 09:33:45;;;;;;;;;;;9.40;91.30;;;;;;5061632;28;20379;-59
2023/12/13 09:36:18;;;;;;;;;;;9.50;91.20;;;;;;5061626;28;20387;-60
2023/12/13 09:38:51;;;;;;;;;;;9.60;91.20;;;;;;5062827;28;19924;-59
2023/12/13 09:41:25;;;;;;;;;;;9.60;91.10;;;;;;5063011;28;20043;-60
2023/12/13 09:43:53;;;;;;;;;;;9.70;90.90;;;;;;5062488;28;19928;-60
2023/12/13 09:46:27;;;;;;;;;;;9.70;91.00;;;;;;5049517;28;19928;-60
2023/12/13 09:49:01;;;;;;;;;;;9.70;91.10;;;;;;5059337;28;20011;-59
2023/12/13 09:51:35;;;;;;;;;;;9.70;91.10;;;;;;5044310;28;19928;-61
2023/12/13 09:54:09;;;;;;;;;;;9.70;91.10;;;;;;5063405;28;19925;-59
2023/12/13 09:56:44;;;;;;;;;;;9.70;91.10;;;;;;5062309;28;20520;-60
2023/12/13 09:59:21;;;;;;;;;;;9.70;91.00;;;;;;5062785;28;19936;-58
2023/12/13 10:01:56;;;;;;;;;;;9.80;90.90;;;;;;5059695;28;20364;-60
2023/12/13 10:04:32;;;;;;;;;;;9.90;90.90;;;;;;5060900;28;20027;-60
2023/12/13 10:07:06;;;;;;;;;;;10.00;90.80;;;;;;5060730;28;20395;-59
2023/12/13 10:09:39;;;;;;;;;;;10.10;90.70;;;;;;5061520;28;19925;-61
2023/12/13 10:12:12;;;;;;;;;;;10.10;90.70;;;;;;5062505;28;19932;-60
2023/12/13 10:14:46;;;;;;;;;;;10.10;90.70;;;;;;5060797;28;19935;-59
2023/12/13 10:17:20;;;;;;;;;;;10.00;90.70;;;;;;5062473;28;19963;-60
2023/12/13 10:19:54;;;;;;;;;;;9.90;90.80;;;;;;5060176;28;20407;-71
2023/12/13 10:22:29;;;;;;;;;;;9.90;90.90;;;;;;5061629;28;19937;-71
2023/12/13 10:25:03;;;;;;;;;;;9.90;90.90;;;;;;5062381;28;20367;-71
2023/12/13 10:27:37;;;;;;;;;;;9.90;91.00;;;;;;5060579;28;20621;-70
2023/12/13 10:30:10;;;;;;;;;;;9.90;91.00;;;;;;5060704;28;19935;-70
2023/12/13 10:32:44;;;;;;;;;;;9.90;91.10;;;;;;5059806;28;19924;-72
2023/12/13 10:35:19;;;;;;;;;;;9.80;91.10;;;;;;5062118;28;19924;-70
2023/12/13 10:37:55;;;;;;;;;;;9.90;91.10;;;;;;5050260;28;19970;-70
2023/12/13 10:40:28;;;;;;;;;;;9.90;91.20;;;;;;5062085;28;19940;-70
2023/12/13 10:43:01;;;;;;;;;;;9.90;91.10;;;;;;5061347;28;19928;-71
2023/12/13 10:45:34;;;;;;;;;;;9.90;90.90;;;;;;5062028;28;19924;-71
2023/12/13 10:48:08;;;;;;;;;;;9.90;90.90;;;;;;5058711;28;20792;-72
2023/12/13 10:50:51;;;;;;;;;;;10.00;90.90;;;;;;5060564;28;19924;-71
2023/12/13 10:53:25;;;;;;;;;;;9.90;90.90;;;;;;5061180;28;19925;-72
2023/12/13 10:55:58;;;;;;;;;;;9.90;91.00;;;;;;5061345;28;19958;-71
2023/12/13 10:58:32;;;;;;;;;;;9.90;90.80;;;;;;5062287;28;19935;-72
2023/12/13 11:01:07;;;;;;;;;;;9.90;90.80;;;;;;5055820;28;19959;-70
2023/12/13 11:03:42;;;;;;;;;;;9.90;90.80;;;;;;5062865;28;20450;-71
2023/12/13 11:06:17;;;;;;;;;;;10.00;90.80;;;;;;5064411;28;19978;-71
2023/12/13 11:08:50;;;;;;;;;;;10.00;90.70;;;;;;5063040;28;19929;-70
2023/12/13 11:11:29;;;;;;;;;;;10.10;90.40;;;;;;5065108;28;19982;-71
2023/12/13 11:14:02;;;;;;;;;;;10.10;90.40;;;;;;5059836;28;19928;-70
2023/12/13 11:16:40;;;;;;;;;;;10.20;90.30;;;;;;5059398;28;20287;-67
2023/12/13 11:19:29;;;;;;;;;;;10.20;90.20;;;;;;5059524;28;23905;-70
2023/12/13 12:23:19;;;;;;;;;;;10.30;87.50;;;;;;5062744;28;20334;-62
2023/12/13 12:25:53;;;;;;;;;;;10.30;87.50;;;;;;5061599;28;19935;-63
2023/12/13 12:28:27;;;;;;;;;;;10.30;87.80;;;;;;5064344;28;19935;-62
2023/12/13 12:31:00;;;;;;;;;;;10.30;87.70;;;;;;5062205;28;19924;-62
2023/12/13 12:33:39;;;;;;;;;;;10.20;87.90;;;;;;5060399;28;19932;-62
2023/12/13 12:36:13;;;;;;;;;;;10.20;87.90;;;;;;5062390;28;19925;-63
2023/12/13 12:38:47;;;;;;;;;;;10.10;87.90;;;;;;5064586;28;20002;-63
2023/12/13 12:41:22;;;;;;;;;;;10.10;88.00;;;;;;5064285;28;19931;-68
2023/12/13 12:43:55;;;;;;;;;;;10.10;88.10;;;;;;5062331;28;19931;-68
2023/12/13 12:46:28;;;;;;;;;;;10.20;88.00;;;;;;5063723;28;19935;-67
2023/12/13 12:49:01;;;;;;;;;;;10.20;87.90;;;;;;5059538;28;19960;-67
2023/12/13 12:51:34;;;;;;;;;;;10.30;87.80;;;;;;5061610;28;19924;-68
2023/12/13 12:54:08;;;;;;;;;;;10.30;87.70;;;;;;5062502;28;19943;-67
2023/12/13 12:56:41;;;;;;;;;;;10.40;87.70;;;;;;5063712;28;19929;-67
2023/12/13 12:59:15;;;;;;;;;;;10.40;87.60;;;;;;5059572;28;20019;-68
2023/12/13 13:01:49;;;;;;;;;;;10.30;87.70;;;;;;5058752;28;19925;-69
2023/12/13 13:04:25;;;;;;;;;;;10.30;87.80;;;;;;5062873;28;19953;-68
2023/12/13 13:06:59;;;;;;;;;;;10.30;87.80;;;;;;5061503;28;19935;-67
2023/12/13 13:09:34;;;;;;;;;;;10.20;87.70;;;;;;5059811;28;19952;-66
2023/12/13 13:12:08;;;;;;;;;;;10.10;87.60;;;;;;5062046;28;19932;-68
2023/12/13 13:14:41;;;;;;;;;;;10.10;87.90;;;;;;5062943;28;19925;-67
2023/12/13 13:17:14;;;;;;;;;;;10.10;87.90;;;;;;5060306;28;19929;-67
2023/12/13 13:19:47;;;;;;;;;;;10.00;88.00;;;;;;5063242;28;19939;-67
2023/12/13 13:22:13;;;;;;;;;;;10.10;88.00;;;;;;5062251;28;20018;-68
2023/12/13 13:24:48;;;;;;;;;;;10.10;88.10;;;;;;5060976;28;19925;-67
2023/12/13 13:27:21;;;;;;;;;;;10.10;88.10;;;;;;5064841;28;19928;-68
2023/12/13 13:29:54;;;;;;;;;;;10.00;88.20;;;;;;5062289;28;19936;-68
2023/12/13 13:32:27;;;;;;;;;;;10.00;88.20;;;;;;5062450;28;20050;-68
2023/12/13 13:35:00;;;;;;;;;;;10.00;88.30;;;;;;5061284;28;19928;-67
2023/12/13 13:37:33;;;;;;;;;;;10.00;88.30;;;;;;5062768;28;19933;-67
2023/12/13 13:40:12;;;;;;;;;;;10.00;88.30;;;;;;5062147;28;19932;-68
2023/12/13 13:42:46;;;;;;;;;;;10.10;88.40;;;;;;5061848;28;19932;-68
2023/12/13 13:45:19;;;;;;;;;;;10.20;88.40;;;;;;5063081;28;19979;-68
2023/12/13 13:47:55;;;;;;;;;;;10.20;88.30;;;;;;5061200;28;20008;-68
2023/12/13 13:50:28;;;;;;;;;;;10.10;88.40;;;;;;5059499;28;20242;-61
2023/12/13 13:53:01;;;;;;;;;;;10.10;88.30;;;;;;5062697;28;19931;-61
2023/12/13 13:55:35;;;;;;;;;;;10.10;88.30;;;;;;5061224;28;19924;-60
2023/12/13 13:58:11;;;;;;;;;;;10.10;88.40;;;;;;5061617;28;20028;-61
2023/12/13 14:00:45;;;;;;;;;;;10.10;88.40;;;;;;5059059;28;19928;-62
2023/12/13 14:03:18;;;;;;;;;;;10.10;88.40;;;;;;5061960;28;19929;-61
2023/12/13 14:05:54;;;;;;;;;;;10.00;88.40;;;;;;5061080;28;19928;-60
2023/12/13 14:08:27;;;;;;;;;;;9.90;88.30;;;;;;5062742;28;20002;-61
2023/12/13 14:11:01;;;;;;;;;;;9.90;88.30;;;;;;5061224;28;19935;-60
2023/12/13 14:13:28;;;;;;;;;;;9.90;88.30;;;;;;5058193;28;19994;-62
2023/12/13 14:16:03;;;;;;;;;;;9.90;88.30;;;;;;5061399;28;19924;-60
2023/12/13 14:18:42;;;;;;;;;;;9.80;88.30;;;;;;5060929;28;19933;-65
2023/12/13 14:21:16;;;;;;;;;;;9.80;88.20;;;;;;5061159;28;20260;-62
2023/12/13 14:23:49;;;;;;;;;;;9.70;88.30;;;;;;5042044;28;20288;-61
2023/12/13 14:26:23;;;;;;;;;;;9.70;88.30;;;;;;5061912;28;19928;-61
2023/12/13 14:28:57;;;;;;;;;;;9.60;88.20;;;;;;5059358;28;20291;-61
2023/12/13 14:31:30;;;;;;;;;;;9.60;88.30;;;;;;5044677;28;20309;-60
2023/12/13 14:34:03;;;;;;;;;;;9.60;88.30;;;;;;5058488;28;20019;-61
2023/12/13 14:36:36;;;;;;;;;;;9.50;88.40;;;;;;5059934;28;19939;-67
2023/12/13 14:39:09;;;;;;;;;;;9.60;88.50;;;;;;5060898;28;19970;-62
2023/12/13 14:41:43;;;;;;;;;;;9.50;88.50;;;;;;5061796;28;19932;-61
2023/12/13 14:44:18;;;;;;;;;;;9.50;88.60;;;;;;5061460;28;19929;-63
2023/12/13 14:46:51;;;;;;;;;;;9.50;88.70;;;;;;5061315;28;19928;-61
2023/12/13 14:49:24;;;;;;;;;;;9.50;88.80;;;;;;5062769;28;19971;-62
2023/12/13 14:51:57;;;;;;;;;;;9.50;88.80;;;;;;5059672;28;19935;-62
2023/12/13 14:54:36;;;;;;;;;;;9.40;88.80;;;;;;5058422;28;19940;-61
2023/12/13 14:57:11;;;;;;;;;;;9.40;88.70;;;;;;5061108;28;19998;-60
2023/12/13 14:59:44;;;;;;;;;;;9.40;88.70;;;;;;5060645;28;19947;-71
2023/12/13 15:02:17;;;;;;;;;;;9.40;88.70;;;;;;5061711;28;19925;-71
2023/12/13 15:04:50;;;;;;;;;;;9.40;88.80;;;;;;5059871;28;19929;-72
2023/12/13 15:07:23;;;;;;;;;;;9.40;88.90;;;;;;5061173;28;20015;-72
2023/12/13 15:09:56;;;;;;;;;;;9.40;89.00;;;;;;5059688;28;20042;-71
2023/12/13 15:12:30;;;;;;;;;;;9.40;89.20;;;;;;5061813;28;19927;-71
2023/12/13 15:15:05;;;;;;;;;;;9.30;89.40;;;;;;5059160;28;19971;-71
2023/12/13 15:17:38;;;;;;;;;;;9.40;89.50;;;;;;5059298;28;20291;-70
2023/12/13 15:20:11;;;;;;;;;;;9.40;89.50;;;;;;5061833;28;19925;-71
2023/12/13 15:22:45;;;;;;;;;;;9.30;89.60;;;;;;5060640;28;19925;-70
2023/12/13 15:25:18;;;;;;;;;;;9.30;89.80;;;;;;5057204;28;19925;-71
2023/12/13 15:27:52;;;;;;;;;;;9.30;89.90;;;;;;5054086;28;19930;-70
2023/12/13 15:30:27;;;;;;;;;;;9.20;89.80;;;;;;5060423;28;19930;-70
2023/12/13 15:33:01;;;;;;;;;;;9.20;89.70;;;;;;5060080;28;20371;-73
2023/12/13 15:35:34;;;;;;;;;;;9.20;89.70;;;;;;5059647;28;20444;-72
2023/12/13 15:38:07;;;;;;;;;;;9.20;89.80;;;;;;5060763;28;20006;-71
2023/12/13 15:40:43;;;;;;;;;;;9.20;89.50;;;;;;5059245;28;19933;-71
2023/12/13 15:43:17;;;;;;;;;;;9.20;89.50;;;;;;5062048;28;19963;-71
2023/12/13 15:45:51;;;;;;;;;;;9.20;89.50;;;;;;5059259;28;19925;-72
2023/12/13 15:48:25;;;;;;;;;;;9.20;89.40;;;;;;5060195;28;19924;-72
2023/12/13 15:50:58;;;;;;;;;;;9.10;89.40;;;;;;5058450;28;19928;-71
2023/12/13 15:53:31;;;;;;;;;;;9.10;89.40;;;;;;5059885;28;19947;-71
2023/12/13 15:56:08;;;;;;;;;;;9.10;89.30;;;;;;5060212;28;20362;-72
2023/12/13 15:58:49;;;;;;;;;;;9.10;89.30;;;;;;5056653;28;20379;-71
2023/12/13 16:01:22;;;;;;;;;;;9.00;89.30;;;;;;5059557;28;19929;-70
2023/12/13 16:03:55;;;;;;;;;;;8.90;89.20;;;;;;5059657;28;20023;-71
2023/12/13 16:06:28;;;;;;;;;;;8.90;89.30;;;;;;5059337;28;19968;-71
2023/12/13 16:09:01;;;;;;;;;;;8.90;89.30;;;;;;5060938;28;19929;-65
2023/12/13 16:11:34;;;;;;;;;;;8.90;89.30;;;;;;5059769;28;20019;-62